Time;durP1;ratioP1;P1;durP2;ratioP2;P2;SDS_P1;SDS_P2;PMS_P1;PMS_P2;Temp;Humidity;BMP_temperature;BMP_pressure;BME280_temperature;BME280_humidity;BME280_pressure;Samples;Min_cycle;Max_cycle;Signal;HPM_P1;HPM_P2
2021/01/27 00:01:36;;;;;;;8.60;7.72;;;0.90;99.90;;;;;;6198739;23;20189;-84
2021/01/27 00:04:02;;;;;;;6.28;5.68;;;0.90;99.90;;;;;;6198975;23;20654;-83
2021/01/27 00:06:29;;;;;;;6.55;5.97;;;0.90;99.90;;;;;;6199153;23;20244;-84
2021/01/27 00:08:55;;;;;;;6.32;5.60;;;0.90;99.90;;;;;;6200065;23;20182;-84
2021/01/27 00:11:21;;;;;;;6.65;6.05;;;1.00;99.90;;;;;;6198969;23;20185;-83
2021/01/27 00:13:47;;;;;;;6.32;5.47;;;1.00;99.90;;;;;;6198960;23;20661;-85
2021/01/27 00:16:15;;;;;;;10.57;6.25;;;0.90;99.90;;;;;;6200790;23;20202;-83
2021/01/27 00:18:41;;;;;;;9.32;7.22;;;0.90;99.90;;;;;;6200079;23;20210;-84
2021/01/27 00:21:07;;;;;;;8.30;6.97;;;0.90;99.90;;;;;;6199570;23;20520;-84
2021/01/27 00:23:33;;;;;;;11.63;6.78;;;1.00;99.90;;;;;;6198838;23;20198;-84
2021/01/27 00:25:59;;;;;;;7.28;5.78;;;1.00;99.90;;;;;;6198648;23;20206;-83
2021/01/27 00:28:26;;;;;;;11.57;6.90;;;0.90;99.90;;;;;;6199466;23;20185;-84
2021/01/27 00:30:52;;;;;;;8.52;6.55;;;1.00;99.90;;;;;;6200080;23;20179;-83
2021/01/27 00:33:19;;;;;;;6.45;5.70;;;1.00;99.90;;;;;;6200038;23;20276;-84
2021/01/27 00:35:48;;;;;;;6.90;5.72;;;1.00;99.90;;;;;;6199810;23;20199;-83
2021/01/27 00:38:16;;;;;;;12.20;5.95;;;1.00;99.90;;;;;;6198807;23;20232;-83
2021/01/27 00:40:43;;;;;;;7.25;6.65;;;1.00;99.90;;;;;;6199015;23;20183;-84
2021/01/27 00:43:09;;;;;;;6.88;5.65;;;1.00;99.90;;;;;;6198480;23;20826;-83
2021/01/27 00:45:36;;;;;;;8.32;7.68;;;1.00;99.90;;;;;;6198828;23;20225;-83
2021/01/27 00:48:02;;;;;;;7.68;6.07;;;1.00;99.90;;;;;;6198961;23;20262;-84
2021/01/27 00:50:29;;;;;;;6.50;5.95;;;1.00;99.90;;;;;;6198417;23;20189;-83
2021/01/27 00:52:55;;;;;;;9.05;7.00;;;0.80;99.90;;;;;;6198876;23;20183;-84
2021/01/27 00:55:24;;;;;;;6.82;5.25;;;0.80;99.90;;;;;;6199088;23;20209;-84
2021/01/27 00:57:50;;;;;;;5.72;5.22;;;0.80;99.90;;;;;;6199231;23;20179;-84
2021/01/27 01:00:20;;;;;;;7.38;6.60;;;0.80;99.90;;;;;;6199549;23;20182;-84
2021/01/27 01:02:46;;;;;;;7.85;6.35;;;0.80;99.90;;;;;;6198005;23;20178;-84
2021/01/27 01:05:15;;;;;;;7.80;7.20;;;0.90;99.90;;;;;;6197267;23;20582;-84
2021/01/27 01:07:46;;;;;;;9.75;6.85;;;0.90;99.90;;;;;;6197796;23;20189;-84
2021/01/27 01:10:13;;;;;;;8.50;6.55;;;0.90;99.90;;;;;;6197876;23;20167;-84
2021/01/27 01:12:39;;;;;;;8.43;6.40;;;0.80;99.90;;;;;;6198148;23;20242;-84
2021/01/27 01:15:07;;;;;;;8.90;7.97;;;0.80;99.90;;;;;;6198270;23;20425;-84
2021/01/27 01:17:33;;;;;;;8.40;6.80;;;0.80;99.90;;;;;;6198202;23;20635;-84
2021/01/27 01:19:59;;;;;;;7.63;6.85;;;0.90;99.90;;;;;;6197482;23;20182;-84
2021/01/27 01:22:25;;;;;;;7.88;7.18;;;0.70;99.90;;;;;;6197478;23;20644;-84
2021/01/27 01:24:52;;;;;;;7.93;6.72;;;0.70;99.90;;;;;;6197382;23;20226;-84
2021/01/27 01:27:19;;;;;;;9.18;8.27;;;0.70;99.90;;;;;;6198151;23;20182;-84
2021/01/27 01:29:45;;;;;;;10.45;6.63;;;0.60;99.90;;;;;;6197237;23;20206;-84
2021/01/27 01:32:11;;;;;;;8.50;6.90;;;0.60;99.90;;;;;;6198378;23;20185;-84
2021/01/27 01:34:37;;;;;;;7.28;6.10;;;0.60;99.90;;;;;;6197630;23;20174;-84
2021/01/27 01:37:04;;;;;;;7.28;6.40;;;0.70;99.90;;;;;;6197066;23;20205;-84
2021/01/27 01:39:30;;;;;;;7.63;6.82;;;0.80;99.90;;;;;;6198852;23;20282;-84
2021/01/27 01:41:57;;;;;;;6.97;6.28;;;0.90;99.90;;;;;;6198598;23;20187;-84
2021/01/27 01:44:23;;;;;;;8.10;6.38;;;1.00;99.90;;;;;;6197829;23;20198;-84
2021/01/27 01:46:49;;;;;;;8.85;7.25;;;1.00;99.90;;;;;;6197501;23;20203;-84
2021/01/27 01:49:16;;;;;;;8.95;7.20;;;1.00;99.90;;;;;;6197653;23;20576;-84
2021/01/27 01:51:51;;;;;;;8.05;6.40;;;1.00;99.90;;;;;;6198049;23;20186;-84
2021/01/27 01:54:19;;;;;;;7.18;6.55;;;1.00;99.90;;;;;;6197511;23;20159;-84
2021/01/27 01:56:52;;;;;;;6.93;6.32;;;1.10;99.90;;;;;;6198426;23;20199;-84
2021/01/27 01:59:20;;;;;;;7.20;6.50;;;1.10;99.90;;;;;;6196989;23;20225;-84
2021/01/27 02:01:51;;;;;;;7.95;5.63;;;1.00;99.90;;;;;;6197647;23;20229;-84
2021/01/27 02:04:18;;;;;;;10.77;7.57;;;1.00;99.90;;;;;;6197821;23;20182;-84
2021/01/27 02:06:44;;;;;;;5.88;5.35;;;0.90;99.90;;;;;;6197883;23;20222;-84
2021/01/27 02:09:11;;;;;;;7.20;6.72;;;0.90;99.90;;;;;;6197060;23;20182;-84
2021/01/27 02:12:07;;;;;;;6.82;6.07;;;0.90;99.90;;;;;;6197532;23;20182;-84
2021/01/27 02:14:52;;;;;;;7.55;6.32;;;0.90;99.90;;;;;;6189604;23;20206;-84
2021/01/27 02:17:28;;;;;;;6.95;5.30;;;0.90;99.90;;;;;;6196966;23;20247;-84
2021/01/27 02:20:24;;;;;;;7.30;6.70;;;1.00;99.90;;;;;;6196831;23;20173;-84
2021/01/27 02:23:27;;;;;;;6.75;6.10;;;0.90;99.90;;;;;;6195680;23;20179;-85
2021/01/27 02:26:02;;;;;;;7.75;7.05;;;0.90;99.90;;;;;;6196953;23;20194;-84
2021/01/27 02:28:42;;;;;;;8.32;5.85;;;0.90;99.90;;;;;;6197187;23;20237;-84
2021/01/27 02:31:15;;;;;;;6.95;5.90;;;0.90;99.90;;;;;;6196567;23;20483;-84
2021/01/27 02:34:08;;;;;;;7.75;6.45;;;0.80;99.90;;;;;;6196032;23;20186;-84
2021/01/27 02:36:41;;;;;;;8.15;7.40;;;0.80;99.90;;;;;;6195873;23;20237;-84
2021/01/27 02:39:12;;;;;;;6.22;5.70;;;0.80;99.90;;;;;;6197453;23;20167;-84
2021/01/27 02:41:46;;;;;;;7.18;6.22;;;0.80;99.90;;;;;;6195496;23;20179;-84
2021/01/27 02:44:15;;;;;;;8.02;5.68;;;0.80;99.90;;;;;;6196383;23;20187;-84
2021/01/27 02:46:47;;;;;;;7.22;6.57;;;0.70;99.90;;;;;;6196024;23;20198;-84
2021/01/27 02:49:19;;;;;;;5.82;5.30;;;0.70;99.90;;;;;;6196183;23;20160;-84
2021/01/27 02:51:50;;;;;;;8.90;6.00;;;0.70;99.90;;;;;;6194523;23;20174;-85
2021/01/27 02:54:21;;;;;;;6.75;6.13;;;0.60;99.90;;;;;;6195779;23;20163;-84
2021/01/27 02:56:53;;;;;;;6.55;5.93;;;0.60;99.90;;;;;;6196532;23;20199;-84
2021/01/27 02:59:26;;;;;;;7.90;7.10;;;0.60;99.90;;;;;;6197575;23;20167;-84
2021/01/27 03:01:58;;;;;;;9.15;7.22;;;0.70;99.90;;;;;;6197458;23;20167;-83
2021/01/27 03:04:29;;;;;;;9.20;8.02;;;0.70;99.90;;;;;;6199118;23;20189;-84
2021/01/27 03:06:58;;;;;;;7.15;6.50;;;0.70;99.90;;;;;;6198101;23;20217;-85
2021/01/27 03:09:33;;;;;;;8.18;7.22;;;0.70;99.90;;;;;;6197605;23;20634;-84
2021/01/27 03:12:00;;;;;;;7.72;6.55;;;0.70;99.90;;;;;;6197747;23;20215;-84
2021/01/27 03:14:27;;;;;;;5.72;4.90;;;0.80;99.90;;;;;;6198728;23;20174;-84
2021/01/27 03:17:00;;;;;;;6.90;6.20;;;0.80;99.90;;;;;;6198070;23;20179;-84
2021/01/27 03:19:35;;;;;;;6.03;5.40;;;0.80;99.90;;;;;;6197569;23;20368;-85
2021/01/27 03:22:08;;;;;;;9.77;6.60;;;0.80;99.90;;;;;;6197193;23;20494;-84
2021/01/27 03:24:40;;;;;;;7.18;5.63;;;0.80;99.90;;;;;;6197849;23;20183;-84
2021/01/27 03:27:12;;;;;;;5.97;5.20;;;0.80;99.90;;;;;;6198320;23;20167;-84
2021/01/27 03:29:45;;;;;;;5.30;4.45;;;0.80;99.90;;;;;;6197705;23;20918;-84
2021/01/27 03:32:19;;;;;;;5.05;4.40;;;0.80;99.90;;;;;;6196992;23;20478;-84
2021/01/27 03:34:50;;;;;;;5.43;4.82;;;0.80;99.90;;;;;;6197575;23;20163;-84
2021/01/27 03:37:22;;;;;;;4.10;3.80;;;0.90;99.90;;;;;;6198058;23;20186;-84
2021/01/27 03:39:53;;;;;;;5.07;4.47;;;0.90;99.90;;;;;;6198053;23;20178;-85
2021/01/27 03:42:26;;;;;;;5.80;3.92;;;1.00;99.90;;;;;;6196950;23;20163;-84
2021/01/27 03:44:59;;;;;;;4.53;4.13;;;1.10;99.90;;;;;;6197654;23;20207;-84
2021/01/27 03:47:31;;;;;;;6.30;5.80;;;1.10;99.90;;;;;;6197494;23;20641;-84
2021/01/27 03:50:02;;;;;;;5.68;4.38;;;1.10;99.90;;;;;;6196503;23;20167;-84
2021/01/27 03:52:36;;;;;;;7.55;6.07;;;1.10;99.90;;;;;;6195418;23;20198;-84
2021/01/27 03:55:09;;;;;;;5.25;4.75;;;1.10;99.90;;;;;;6197426;23;20205;-84
2021/01/27 03:57:40;;;;;;;5.68;4.68;;;1.10;99.90;;;;;;6198242;23;20197;-84
2021/01/27 04:00:08;;;;;;;5.15;4.55;;;1.20;99.90;;;;;;6197029;23;20163;-84
2021/01/27 04:02:34;;;;;;;5.30;4.90;;;1.10;99.90;;;;;;6196448;23;20179;-84
2021/01/27 04:05:00;;;;;;;6.13;5.68;;;1.10;99.90;;;;;;6197532;23;20207;-84
2021/01/27 04:07:27;;;;;;;4.93;4.60;;;1.10;99.90;;;;;;6197338;23;20183;-85
2021/01/27 04:09:54;;;;;;;4.85;4.55;;;1.10;99.90;;;;;;6196501;23;20241;-84
2021/01/27 04:12:20;;;;;;;4.22;3.92;;;1.20;99.90;;;;;;6196402;23;20191;-84
2021/01/27 04:14:46;;;;;;;4.15;3.70;;;1.10;99.90;;;;;;6197156;23;20213;-84
2021/01/27 04:17:25;;;;;;;4.90;4.50;;;1.20;99.90;;;;;;6197779;23;20563;-85
2021/01/27 04:19:52;;;;;;;4.05;3.75;;;1.30;99.90;;;;;;6197150;23;20175;-85
2021/01/27 04:22:18;;;;;;;4.70;4.30;;;1.30;99.90;;;;;;6195740;23;20191;-84
2021/01/27 04:24:44;;;;;;;3.88;3.58;;;1.20;99.90;;;;;;6196309;23;20194;-84
2021/01/27 04:27:12;;;;;;;4.32;4.00;;;1.30;99.90;;;;;;6197458;23;20183;-85
2021/01/27 04:29:38;;;;;;;3.95;3.65;;;1.30;99.90;;;;;;6196798;23;20183;-84
2021/01/27 04:32:04;;;;;;;4.72;4.28;;;1.20;99.90;;;;;;6196044;23;20183;-84
2021/01/27 04:34:31;;;;;;;4.47;4.07;;;1.30;99.90;;;;;;6196410;23;20175;-84
2021/01/27 04:36:57;;;;;;;6.07;4.93;;;1.30;99.90;;;;;;6197055;23;20183;-84
2021/01/27 04:39:23;;;;;;;4.78;4.35;;;1.30;99.90;;;;;;6196862;23;20182;-84
2021/01/27 04:41:50;;;;;;;4.80;4.40;;;1.40;99.90;;;;;;6196433;23;20182;-84
2021/01/27 04:44:17;;;;;;;4.35;3.95;;;1.40;99.90;;;;;;6197496;23;20245;-84
2021/01/27 04:46:58;;;;;;;3.80;3.50;;;1.40;99.90;;;;;;6197128;23;20210;-83
2021/01/27 04:49:27;;;;;;;4.40;4.03;;;1.50;99.90;;;;;;6196799;23;20178;-83
2021/01/27 04:51:58;;;;;;;5.20;4.38;;;1.50;99.90;;;;;;6197340;23;20183;-83
2021/01/27 04:54:35;;;;;;;4.55;4.15;;;1.60;99.90;;;;;;6198018;23;20163;-84
2021/01/27 04:57:27;;;;;;;6.00;4.07;;;1.60;99.90;;;;;;6197681;23;20167;-83
2021/01/27 05:00:11;;;;;;;3.80;3.30;;;1.60;99.90;;;;;;6198067;23;20169;-83
2021/01/27 05:02:49;;;;;;;4.68;4.20;;;1.60;99.90;;;;;;6197578;23;20245;-83
2021/01/27 05:05:18;;;;;;;5.07;4.68;;;1.60;99.90;;;;;;6198156;23;20209;-83
2021/01/27 05:07:57;;;;;;;4.95;4.55;;;1.70;99.90;;;;;;6197586;23;20178;-83
2021/01/27 05:10:30;;;;;;;4.53;4.13;;;1.70;99.90;;;;;;6199287;23;20163;-83
2021/01/27 05:13:02;;;;;;;4.43;4.03;;;1.80;99.90;;;;;;6197449;23;20242;-83
2021/01/27 05:15:29;;;;;;;5.18;4.50;;;1.80;99.90;;;;;;6198264;23;20205;-84
2021/01/27 05:17:57;;;;;;;6.00;4.28;;;1.80;99.90;;;;;;6197397;23;20183;-83
2021/01/27 05:20:24;;;;;;;3.53;3.33;;;1.90;99.90;;;;;;6198739;23;20183;-83
2021/01/27 05:22:50;;;;;;;4.80;4.40;;;1.90;99.90;;;;;;6195890;23;20514;-83
2021/01/27 05:25:30;;;;;;;4.53;4.13;;;1.90;99.90;;;;;;6197626;23;20210;-83
2021/01/27 05:27:59;;;;;;;4.70;4.43;;;1.90;99.90;;;;;;6197829;23;20163;-83
2021/01/27 05:30:30;;;;;;;4.55;4.15;;;1.90;99.90;;;;;;6197697;23;20178;-83
2021/01/27 05:32:57;;;;;;;5.68;4.32;;;1.90;99.90;;;;;;6197308;23;20655;-83
2021/01/27 05:35:28;;;;;;;5.70;4.70;;;2.00;99.90;;;;;;6197856;23;20201;-83
2021/01/27 05:37:54;;;;;;;4.53;4.13;;;1.90;99.90;;;;;;6197310;23;20163;-83
2021/01/27 05:40:32;;;;;;;5.30;4.32;;;1.90;99.90;;;;;;6197189;23;20257;-84
2021/01/27 05:43:00;;;;;;;4.18;3.88;;;1.90;99.90;;;;;;6196006;23;20170;-84
2021/01/27 05:45:40;;;;;;;3.72;3.42;;;1.90;99.90;;;;;;6197849;23;20210;-82
2021/01/27 05:48:26;;;;;;;6.22;5.07;;;1.90;99.90;;;;;;6197531;23;20242;-83
2021/01/27 05:50:54;;;;;;;4.97;3.30;;;1.80;99.90;;;;;;6198063;23;20229;-83
2021/01/27 05:53:23;;;;;;;4.53;4.10;;;1.80;99.90;;;;;;6198033;23;20265;-83
2021/01/27 05:55:58;;;;;;;4.28;3.95;;;1.80;99.90;;;;;;6197717;23;20194;-83
2021/01/27 05:58:25;;;;;;;5.38;4.80;;;1.70;99.90;;;;;;6197653;23;20178;-84
2021/01/27 06:00:51;;;;;;;6.63;3.72;;;1.70;99.90;;;;;;6197506;23;20639;-83
2021/01/27 06:03:24;;;;;;;3.83;3.47;;;1.70;99.90;;;;;;6196874;23;20182;-83
2021/01/27 06:05:52;;;;;;;4.28;3.88;;;1.70;99.90;;;;;;6196887;23;20209;-83
2021/01/27 06:08:21;;;;;;;3.50;3.22;;;1.70;99.90;;;;;;6197164;23;20182;-82
2021/01/27 06:10:47;;;;;;;4.28;4.00;;;1.80;99.90;;;;;;6196404;23;20204;-83
2021/01/27 06:13:24;;;;;;;4.85;4.35;;;1.70;99.90;;;;;;6196332;23;20210;-83
2021/01/27 06:15:51;;;;;;;4.15;3.75;;;1.50;99.90;;;;;;6197780;23;20199;-83
2021/01/27 06:18:29;;;;;;;3.03;2.80;;;1.50;99.90;;;;;;6196221;23;20188;-83
2021/01/27 06:21:23;;;;;;;4.25;3.60;;;1.50;99.90;;;;;;6197547;23;20182;-83
2021/01/27 06:24:14;;;;;;;3.17;2.90;;;1.50;99.90;;;;;;6171280;23;20631;-83
2021/01/27 06:27:19;;;;;;;4.40;3.78;;;1.50;99.90;;;;;;6196943;23;20220;-83
2021/01/27 06:30:05;;;;;;;4.15;3.42;;;1.50;99.90;;;;;;6198344;23;20282;-82
2021/01/27 06:32:45;;;;;;;6.90;3.45;;;1.50;99.90;;;;;;6176927;23;20236;-82
2021/01/27 06:35:23;;;;;;;2.95;2.75;;;1.60;99.90;;;;;;6197690;23;20201;-83
2021/01/27 06:38:01;;;;;;;3.75;3.05;;;1.60;99.90;;;;;;6196946;23;20167;-83
2021/01/27 06:40:43;;;;;;;3.90;2.75;;;1.60;99.90;;;;;;6197413;23;20197;-83
2021/01/27 06:43:36;;;;;;;3.10;2.90;;;1.50;99.90;;;;;;6196573;23;20218;-82
2021/01/27 06:46:20;;;;;;;3.17;2.97;;;1.50;99.90;;;;;;6196159;23;20195;-83
2021/01/27 06:49:10;;;;;;;5.07;3.10;;;1.50;99.90;;;;;;6200317;23;20167;-82
2021/01/27 06:51:55;;;;;;;3.75;3.33;;;1.50;99.90;;;;;;6198741;23;20190;-83
2021/01/27 06:54:49;;;;;;;5.18;3.25;;;1.50;99.90;;;;;;6198109;23;20162;-83
2021/01/27 06:57:24;;;;;;;3.85;3.40;;;1.60;99.90;;;;;;6196770;23;20242;-84
2021/01/27 07:00:15;;;;;;;3.67;3.38;;;1.60;99.90;;;;;;6198973;23;20171;-82
2021/01/27 07:03:20;;;;;;;4.28;3.88;;;1.60;99.90;;;;;;6198468;23;20167;-83
2021/01/27 07:06:04;;;;;;;3.85;3.55;;;1.40;99.90;;;;;;6197952;23;20230;-83
2021/01/27 07:09:10;;;;;;;2.67;2.47;;;1.50;99.90;;;;;;6197878;23;20163;-83
2021/01/27 07:11:46;;;;;;;7.00;3.92;;;1.40;99.90;;;;;;6145172;23;20206;-83
2021/01/27 07:14:37;;;;;;;4.35;3.83;;;1.40;99.90;;;;;;6197184;23;20617;-83
2021/01/27 07:17:17;;;;;;;5.72;3.80;;;1.50;99.90;;;;;;6197352;23;20261;-84
2021/01/27 07:20:06;;;;;;;4.25;3.95;;;1.50;99.90;;;;;;6198863;23;20167;-83
2021/01/27 07:22:38;;;;;;;4.15;3.35;;;1.50;99.90;;;;;;6197735;23;20214;-83
2021/01/27 07:25:13;;;;;;;3.28;3.00;;;1.50;99.90;;;;;;6198919;23;20206;-83
2021/01/27 07:27:46;;;;;;;2.97;2.78;;;1.50;99.90;;;;;;6197644;23;20167;-83
2021/01/27 07:30:16;;;;;;;3.65;3.10;;;1.50;99.90;;;;;;6198028;23;20187;-84
2021/01/27 07:32:49;;;;;;;6.03;5.53;;;1.60;99.90;;;;;;6197475;23;20182;-83
2021/01/27 07:35:21;;;;;;;5.05;4.38;;;1.60;99.90;;;;;;6197285;23;20195;-83
2021/01/27 07:37:51;;;;;;;3.83;3.22;;;1.60;99.90;;;;;;6196966;23;20205;-83
2021/01/27 07:40:25;;;;;;;10.73;3.70;;;1.70;99.90;;;;;;6196250;23;20593;-83
2021/01/27 07:42:57;;;;;;;3.97;3.67;;;1.70;99.90;;;;;;6196306;23;20611;-83
2021/01/27 07:45:27;;;;;;;4.32;3.88;;;1.60;99.90;;;;;;6197650;23;20237;-82
2021/01/27 07:48:05;;;;;;;3.72;3.30;;;1.60;99.90;;;;;;6200186;23;20208;-83
2021/01/27 07:50:31;;;;;;;4.53;4.13;;;1.60;99.90;;;;;;6207911;23;20230;-83
2021/01/27 07:53:19;;;;;;;5.38;3.95;;;1.60;99.90;;;;;;6211446;23;20166;-83
2021/01/27 07:56:00;;;;;;;4.57;4.28;;;1.60;99.90;;;;;;6211267;23;20229;-83
2021/01/27 07:58:34;;;;;;;5.18;4.70;;;1.60;99.90;;;;;;6211804;23;20169;-82
2021/01/27 08:01:06;;;;;;;4.30;3.85;;;1.60;99.90;;;;;;6209780;23;20151;-82
2021/01/27 08:03:38;;;;;;;4.50;4.10;;;1.60;99.90;;;;;;6211206;23;20535;-81
2021/01/27 08:06:07;;;;;;;6.20;5.53;;;1.50;99.90;;;;;;6207592;23;20282;-82
2021/01/27 08:08:48;;;;;;;4.00;3.70;;;1.50;99.90;;;;;;6208778;23;20201;-82
2021/01/27 08:11:21;;;;;;;4.97;4.47;;;1.50;99.90;;;;;;6207594;23;20321;-81
2021/01/27 08:13:47;;;;;;;6.13;5.10;;;1.50;99.90;;;;;;6208557;23;20198;-81
2021/01/27 08:16:41;;;;;;;4.70;4.30;;;1.50;99.90;;;;;;6208557;23;20250;-82
2021/01/27 08:19:44;;;;;;;6.18;5.57;;;1.50;99.90;;;;;;6208598;23;20190;-82
2021/01/27 08:22:46;;;;;;;6.07;5.13;;;1.50;99.90;;;;;;6207630;23;20509;-82
2021/01/27 08:25:52;;;;;;;5.68;4.82;;;1.60;99.90;;;;;;6202210;23;20254;-82
2021/01/27 08:29:04;;;;;;;5.47;5.03;;;1.70;99.90;;;;;;6199263;23;20226;-83
2021/01/27 08:31:33;;;;;;;7.50;5.60;;;1.80;99.90;;;;;;6195530;23;20163;-81
2021/01/27 08:34:39;;;;;;;5.50;5.00;;;1.80;99.90;;;;;;6196973;23;20198;-82
2021/01/27 08:37:23;;;;;;;5.53;4.57;;;1.90;99.90;;;;;;6195096;23;20178;-82
2021/01/27 08:40:04;;;;;;;6.90;4.60;;;1.80;99.90;;;;;;6191424;23;20182;-83
2021/01/27 08:42:46;;;;;;;6.65;4.50;;;1.80;99.90;;;;;;6195128;23;20218;-82
2021/01/27 08:45:27;;;;;;;4.40;4.10;;;1.90;99.90;;;;;;6194983;23;20230;-82
2021/01/27 08:47:57;;;;;;;5.20;4.70;;;1.80;99.90;;;;;;6194452;23;20194;-82
2021/01/27 08:50:40;;;;;;;5.70;5.20;;;1.90;99.90;;;;;;6193442;23;20198;-82
2021/01/27 08:53:28;;;;;;;4.68;4.00;;;2.00;99.90;;;;;;6194002;23;20167;-82
2021/01/27 08:55:56;;;;;;;6.82;4.32;;;2.00;99.90;;;;;;6194106;23;20226;-83
2021/01/27 08:59:11;;;;;;;4.40;4.00;;;2.10;99.90;;;;;;6194204;23;20183;-82
2021/01/27 09:01:57;;;;;;;3.88;3.47;;;2.20;99.90;;;;;;6190856;23;20185;-82
2021/01/27 09:04:34;;;;;;;4.40;3.95;;;2.10;99.90;;;;;;6196868;23;20186;-83
2021/01/27 09:07:11;;;;;;;4.30;3.90;;;2.20;99.90;;;;;;6197010;23;20221;-82
2021/01/27 09:09:39;;;;;;;4.78;4.35;;;2.20;99.90;;;;;;6198315;23;20166;-82
2021/01/27 09:12:27;;;;;;;5.05;4.45;;;2.20;99.90;;;;;;6196563;23;20187;-81
2021/01/27 09:14:58;;;;;;;6.72;5.00;;;2.20;99.90;;;;;;6180101;23;20246;-81
2021/01/27 09:17:27;;;;;;;5.18;4.68;;;2.10;99.90;;;;;;6194687;23;20220;-82
2021/01/27 09:19:57;;;;;;;7.03;6.32;;;2.10;99.90;;;;;;6193854;23;20183;-82
2021/01/27 09:22:37;;;;;;;4.43;4.10;;;2.10;99.90;;;;;;6193263;23;20227;-82
2021/01/27 09:25:09;;;;;;;5.47;3.67;;;2.00;99.90;;;;;;6193613;23;20198;-82
2021/01/27 09:27:48;;;;;;;6.38;3.70;;;2.00;99.90;;;;;;6194461;23;20167;-82
2021/01/27 09:30:55;;;;;;;5.40;3.25;;;2.00;99.90;;;;;;6194689;23;20209;-82
2021/01/27 09:33:51;;;;;;;4.63;3.28;;;1.90;99.90;;;;;;6195067;23;20186;-82
2021/01/27 09:36:24;;;;;;;4.82;3.72;;;1.90;99.90;;;;;;6195301;23;20202;-82
2021/01/27 09:38:53;;;;;;;6.78;3.58;;;1.80;99.90;;;;;;6193599;23;20167;-81
2021/01/27 09:41:41;;;;;;;3.72;3.42;;;1.70;99.90;;;;;;6194123;23;20179;-81
2021/01/27 09:44:24;;;;;;;3.95;3.65;;;1.80;99.90;;;;;;6194888;23;20177;-81
2021/01/27 09:46:55;;;;;;;2.95;2.80;;;1.80;99.90;;;;;;6194890;23;20202;-82
2021/01/27 09:49:39;;;;;;;4.45;3.85;;;1.80;99.90;;;;;;6194400;23;20167;-82
2021/01/27 09:52:16;;;;;;;4.20;3.90;;;1.80;99.90;;;;;;6194892;23;20194;-81
2021/01/27 09:55:23;;;;;;;3.40;3.10;;;1.80;99.90;;;;;;6195120;23;20163;-82
2021/01/27 09:58:10;;;;;;;5.07;3.55;;;1.80;99.90;;;;;;6188681;23;20202;-82
2021/01/27 10:00:45;;;;;;;4.78;3.90;;;1.80;99.90;;;;;;6193330;23;20159;-82
2021/01/27 10:03:27;;;;;;;3.70;2.85;;;1.80;99.90;;;;;;6192598;23;20189;-81
2021/01/27 10:05:55;;;;;;;3.75;3.45;;;1.90;99.90;;;;;;6192838;23;20229;-82
2021/01/27 10:08:25;;;;;;;3.35;3.05;;;1.80;99.90;;;;;;6192514;23;20503;-82
2021/01/27 10:11:03;;;;;;;4.05;3.75;;;1.80;99.90;;;;;;6195573;23;20179;-82
2021/01/27 10:13:32;;;;;;;5.18;3.20;;;1.70;99.90;;;;;;6203402;23;20190;-82
2021/01/27 10:16:03;;;;;;;4.60;3.17;;;1.60;99.90;;;;;;6199576;23;20285;-81
2021/01/27 10:18:32;;;;;;;3.63;3.15;;;1.60;99.90;;;;;;6200485;23;20178;-82
2021/01/27 10:21:05;;;;;;;4.78;3.60;;;1.60;99.90;;;;;;6199749;23;20215;-82
2021/01/27 10:23:38;;;;;;;4.15;3.40;;;1.70;99.90;;;;;;6201212;23;20171;-81
2021/01/27 10:26:35;;;;;;;5.50;2.90;;;1.80;99.90;;;;;;6204884;23;20206;-80
2021/01/27 10:29:33;;;;;;;4.93;2.70;;;1.80;99.90;;;;;;6201158;23;20174;-80
2021/01/27 10:32:33;;;;;;;5.03;3.67;;;1.90;99.90;;;;;;6178563;23;20257;-81
2021/01/27 10:35:01;;;;;;;3.65;3.28;;;2.00;99.90;;;;;;6201003;23;20198;-82
2021/01/27 10:37:34;;;;;;;3.03;2.83;;;2.00;99.90;;;;;;6195707;23;20503;-81
2021/01/27 10:40:11;;;;;;;7.78;2.75;;;2.00;99.90;;;;;;6191956;23;20174;-80
2021/01/27 10:42:40;;;;;;;5.43;3.20;;;2.00;99.90;;;;;;6192720;23;20201;-80
2021/01/27 10:45:16;;;;;;;4.88;3.20;;;2.20;99.90;;;;;;6199651;23;20233;-82
2021/01/27 10:47:45;;;;;;;2.58;2.47;;;2.20;99.90;;;;;;6198787;23;20166;-82
2021/01/27 10:50:11;;;;;;;2.50;2.30;;;2.30;99.90;;;;;;6195042;23;20183;-81
2021/01/27 10:52:42;;;;;;;3.47;3.28;;;2.40;99.90;;;;;;6201944;23;20210;-80
2021/01/27 10:55:13;;;;;;;2.60;2.40;;;2.40;99.90;;;;;;6202406;23;20273;-80
2021/01/27 10:57:40;;;;;;;2.25;2.05;;;2.50;99.90;;;;;;6201430;23;20163;-82
2021/01/27 11:00:08;;;;;;;2.05;1.92;;;2.50;99.90;;;;;;6198717;23;20182;-80
2021/01/27 11:02:37;;;;;;;4.13;3.88;;;2.40;99.90;;;;;;6198462;23;20665;-81
2021/01/27 11:05:04;;;;;;;2.72;2.53;;;2.40;99.90;;;;;;6198312;23;20237;-82
2021/01/27 11:07:31;;;;;;;2.45;2.25;;;2.40;99.90;;;;;;6197850;23;20186;-82
2021/01/27 11:09:58;;;;;;;2.35;2.15;;;2.40;99.90;;;;;;6197010;23;20214;-81
2021/01/27 11:12:24;;;;;;;2.30;2.10;;;2.40;99.90;;;;;;6200060;23;20192;-81
2021/01/27 11:14:50;;;;;;;3.55;2.70;;;2.40;99.90;;;;;;6193337;23;20199;-81
2021/01/27 11:17:17;;;;;;;2.00;1.90;;;2.40;99.90;;;;;;6191531;23;20217;-81
2021/01/27 11:19:43;;;;;;;2.40;2.30;;;2.50;99.90;;;;;;6192040;23;20183;-82
2021/01/27 11:22:09;;;;;;;2.90;1.95;;;2.60;99.90;;;;;;6192778;23;20674;-82
2021/01/27 11:24:35;;;;;;;2.28;1.90;;;2.60;99.90;;;;;;6192972;23;20202;-82
2021/01/27 11:27:04;;;;;;;2.60;2.20;;;2.60;99.90;;;;;;6194265;23;20203;-81
2021/01/27 11:29:30;;;;;;;4.95;1.83;;;2.60;99.90;;;;;;6194834;23;20238;-82
2021/01/27 11:31:56;;;;;;;2.08;1.98;;;2.60;99.90;;;;;;6193533;23;20626;-81
2021/01/27 11:34:22;;;;;;;2.42;1.80;;;2.60;99.90;;;;;;6192571;23;20229;-81
2021/01/27 11:36:49;;;;;;;2.03;1.90;;;2.60;99.90;;;;;;6193097;23;20281;-82
2021/01/27 11:39:17;;;;;;;2.15;1.95;;;2.60;99.90;;;;;;6193024;23;20237;-82
2021/01/27 11:41:43;;;;;;;5.03;2.20;;;2.60;99.90;;;;;;6192216;23;20179;-82
2021/01/27 11:44:10;;;;;;;3.20;2.00;;;2.70;99.90;;;;;;6192279;23;20202;-82
2021/01/27 11:46:36;;;;;;;1.98;1.88;;;2.80;99.90;;;;;;6191491;23;20199;-82
2021/01/27 11:49:08;;;;;;;2.05;1.60;;;2.90;99.90;;;;;;6191565;23;20185;-82
2021/01/27 11:51:48;;;;;;;1.40;1.40;;;2.80;99.90;;;;;;6191655;23;20177;-82
2021/01/27 11:54:24;;;;;;;1.95;1.85;;;2.80;99.90;;;;;;6191492;23;20171;-81
2021/01/27 11:56:57;;;;;;;3.03;2.80;;;2.90;99.90;;;;;;6190822;23;20194;-82
2021/01/27 12:02:15;;;;;;;1.75;1.65;;;2.90;99.90;;;;;;6189805;23;20190;-82
2021/01/27 12:04:50;;;;;;;2.35;2.15;;;2.90;99.90;;;;;;6191216;23;20191;-82
2021/01/27 12:07:23;;;;;;;1.17;1.17;;;3.00;99.90;;;;;;6191504;23;20238;-81
2021/01/27 12:09:50;;;;;;;1.65;1.55;;;3.00;99.90;;;;;;6192273;23;20163;-82
2021/01/27 12:12:16;;;;;;;2.28;2.08;;;2.90;99.90;;;;;;6191994;23;20198;-81
2021/01/27 12:14:43;;;;;;;1.98;1.80;;;2.80;99.90;;;;;;6191951;23;20179;-82
2021/01/27 12:17:09;;;;;;;2.25;2.15;;;2.80;99.90;;;;;;6191545;23;20205;-82
2021/01/27 12:19:38;;;;;;;2.20;2.00;;;2.70;99.90;;;;;;6191672;23;20181;-83
2021/01/27 12:22:04;;;;;;;1.90;1.55;;;2.70;99.90;;;;;;6192446;23;20183;-83
2021/01/27 12:24:34;;;;;;;2.15;1.80;;;2.70;99.90;;;;;;6192752;23;20208;-82
2021/01/27 12:27:01;;;;;;;1.45;1.35;;;2.80;99.90;;;;;;6194095;23;20225;-82
2021/01/27 12:29:27;;;;;;;2.58;1.50;;;2.80;99.90;;;;;;6193424;23;20186;-82
2021/01/27 12:31:54;;;;;;;3.40;1.70;;;2.70;99.90;;;;;;6194290;23;20238;-83
2021/01/27 12:34:21;;;;;;;2.00;1.90;;;2.80;99.90;;;;;;6194866;23;20179;-82
2021/01/27 12:36:47;;;;;;;1.98;1.88;;;2.70;99.90;;;;;;6195428;23;20576;-83
2021/01/27 12:39:14;;;;;;;2.53;1.55;;;2.80;99.90;;;;;;6195891;23;20183;-83
2021/01/27 12:41:40;;;;;;;2.63;1.85;;;2.80;99.90;;;;;;6195111;23;20185;-83
2021/01/27 12:44:07;;;;;;;1.83;1.70;;;2.90;99.90;;;;;;6194648;23;20179;-82
2021/01/27 12:46:34;;;;;;;1.50;1.40;;;2.90;99.90;;;;;;6192741;23;20205;-82
2021/01/27 12:49:01;;;;;;;3.00;2.65;;;2.90;99.90;;;;;;6192760;23;20182;-82
2021/01/27 12:51:29;;;;;;;1.63;1.52;;;3.00;99.90;;;;;;6192867;23;20185;-82
2021/01/27 12:53:55;;;;;;;3.75;2.40;;;3.00;99.90;;;;;;6193001;23;20266;-82
2021/01/27 12:56:21;;;;;;;1.55;1.42;;;3.10;99.90;;;;;;6193356;23;20206;-82
2021/01/27 12:58:48;;;;;;;1.90;1.75;;;3.10;99.90;;;;;;6194918;23;20186;-82
2021/01/27 13:01:14;;;;;;;1.63;1.52;;;3.10;99.90;;;;;;6194478;23;20178;-82
2021/01/27 13:03:40;;;;;;;4.97;1.83;;;3.10;99.90;;;;;;6196053;23;20185;-82
2021/01/27 13:06:08;;;;;;;3.17;2.00;;;2.90;99.90;;;;;;6195341;23;20210;-82
2021/01/27 13:08:34;;;;;;;3.67;1.90;;;2.90;99.90;;;;;;6196668;23;20189;-82
2021/01/27 13:11:00;;;;;;;1.73;1.63;;;2.90;99.90;;;;;;6196512;23;20201;-82
2021/01/27 13:13:27;;;;;;;2.00;1.80;;;3.00;99.90;;;;;;6196407;23;20191;-83
2021/01/27 13:15:53;;;;;;;6.25;2.03;;;3.00;99.90;;;;;;6196296;23;20568;-82
2021/01/27 13:18:19;;;;;;;1.73;1.63;;;3.00;99.90;;;;;;6197060;23;20179;-83
2021/01/27 13:20:45;;;;;;;2.13;1.92;;;3.00;99.90;;;;;;6197078;23;20179;-82
2021/01/27 13:23:13;;;;;;;2.97;2.10;;;3.00;99.90;;;;;;6197860;23;20278;-82
2021/01/27 13:25:39;;;;;;;1.92;1.83;;;3.00;99.90;;;;;;6197104;23;20206;-82
2021/01/27 13:28:05;;;;;;;3.65;2.05;;;3.00;99.90;;;;;;6198224;23;20185;-83
2021/01/27 13:30:34;;;;;;;2.15;1.95;;;3.00;99.90;;;;;;6198132;23;20179;-82
2021/01/27 13:33:01;;;;;;;2.13;1.90;;;3.10;99.90;;;;;;6197293;23;20203;-82